Washburn, WI (54891)

9:11 AM CDT on August 29, 2014 (GMT -0500)
Near Northland College | Change Station
CLOSE
Current Station
Personal Weather Station
Location: Ashland, WI
Elevation: 689 ft
Nearby Weather Stations

Elev 689 ft 46.58 °N, 90.88 °W | Updated 28 seconds ago

Rain
Rain
60.0 °F
Feels Like 60.0 °F
N
0.0
Wind Variable Wind from SSE
Gusts 1.0 mph

Today
High -- | Low -- °F
--% Chance of Precip.
Yesterday
High -- | Low -- °F
Precip. -- in
6:19 AM 7:48 PM
Waxing Crescent, 14% visible
Pressure 29.86 in
Visibility 4.0 miles
Clouds Scattered Clouds 1500 ft
Overcast 2400 ft
Dew Point 59 °F
Humidity 95%
Rainfall 0.15 in
Snow Depth Not available.
UV 1 out of 12
Pollen 3.10 out of 12
Air Quality Not available.
Flu Activity Not available.
METAR KASX 291353Z AUTO 00000KT 4SM -RA BR SCT015 OVC024 16/15 A2986 RMK AO2 LTG DSNT SW SLP112 P0008 T01560150

More Conditions Fewer Conditions

Pressure 29.86 in
Visibility 4.0 miles
Clouds Scattered Clouds 1500 ft
Overcast 2400 ft
Dew Point 59 °F
Humidity 95%
Rainfall 0.15 in
Snow Depth Not available.
UV 1 out of 12
Pollen 3.10 out of 12
Air Quality Not available.
Flu Activity Not available.
METAR KASX 291353Z AUTO 00000KT 4SM -RA BR SCT015 OVC024 16/15 A2986 RMK AO2 LTG DSNT SW SLP112 P0008 T01560150

More Conditions Fewer Conditions

10-Day Weather Forecast

Almanac

Astronomy

Aug. 29, 2014 Rise Set
Actual Time 6:19 AM CDT 7:48 PM CDT
Civil Twilight 5:47 AM CDT 8:19 PM CDT
Nautical Twilight 5:09 AM CDT 8:58 PM CDT
Astronomical Twilight 4:28 AM CDT 9:39 PM CDT
Moon 10:25 AM CDT 9:28 PM CDT
Length of Visible Light 14h 31m
Length of Day
13h 28m
Tomorrow will be 3m 11s shorter.
Waxing Crescent, 14% of the Moon is Illuminated
Today
Waxing Crescent
Sep 2
First Quarter
Sep 8
Full
Sep 15
Last Quarter
Sep 24
New

Today's Extremes

State Highs State Lows

Community

WunderPhotos

Upload Photos

1,748,240 photos uploaded!

Nearby

Snow Depth

Station Depth Elevation
No new snow has been reported.

Earthquake Activity

City Distance Mag. Time & Date
No recent earthquake activity has been reported nearby.
Minimum magnitude displayed is 2.5.

Coastal Water Temperatures

Place Temperature
Duluth, MN 64.9 °F

Nearby Weather Stations